Time;durP1;ratioP1;P1;durP2;ratioP2;P2;SDS_P1;SDS_P2;PMS_P1;PMS_P2;Temp;Humidity;BMP_temperature;BMP_pressure;BME280_temperature;BME280_humidity;BME280_pressure;Samples;Min_cycle;Max_cycle;Signal;HPM_P1;HPM_P2
2024/01/25 00:02:09;;;;;;;35.80;5.10;;;7.50;99.90;;;;;;5082805;28;20058;-56
2024/01/25 00:04:34;;;;;;;31.60;4.82;;;7.70;99.90;;;;;;5070668;28;20123;-56
2024/01/25 00:07:00;;;;;;;32.22;4.60;;;7.50;99.90;;;;;;5067117;28;20051;-54
2024/01/25 00:09:25;;;;;;;33.38;5.53;;;7.40;99.90;;;;;;5072577;28;20037;-56
2024/01/25 00:11:51;;;;;;;32.28;5.20;;;7.30;99.90;;;;;;5071849;28;20074;-56
2024/01/25 00:14:17;;;;;;;32.17;5.10;;;7.20;99.90;;;;;;5072467;28;20051;-56
2024/01/25 00:16:43;;;;;;;40.60;5.93;;;7.20;99.90;;;;;;5072604;28;20128;-54
2024/01/25 00:19:09;;;;;;;32.90;4.53;;;7.20;99.90;;;;;;5072723;28;20043;-53
2024/01/25 00:21:34;;;;;;;29.08;4.88;;;7.20;99.90;;;;;;5072723;28;20106;-54
2024/01/25 00:24:00;;;;;;;27.63;4.68;;;7.20;99.90;;;;;;5072701;28;20089;-57
2024/01/25 00:26:26;;;;;;;34.47;4.68;;;7.20;99.90;;;;;;5072894;28;20055;-53
2024/01/25 00:28:51;;;;;;;33.45;5.18;;;7.20;99.90;;;;;;5071234;28;20499;-54
2024/01/25 00:31:17;;;;;;;33.35;4.68;;;7.10;99.90;;;;;;5072675;28;20078;-56
2024/01/25 00:33:43;;;;;;;33.00;5.00;;;7.10;99.90;;;;;;5072674;28;20043;-55
2024/01/25 00:36:09;;;;;;;34.63;5.00;;;7.10;99.90;;;;;;5072916;28;20458;-55
2024/01/25 00:38:35;;;;;;;30.60;5.05;;;7.00;99.90;;;;;;5072934;28;20044;-56
2024/01/25 00:41:01;;;;;;;34.15;4.50;;;7.00;99.90;;;;;;5072008;28;20218;-54
2024/01/25 00:43:27;;;;;;;36.85;5.28;;;7.00;99.90;;;;;;5068105;28;20125;-56
2024/01/25 00:45:53;;;;;;;38.90;4.70;;;6.90;99.90;;;;;;5071879;28;20077;-55
2024/01/25 00:48:19;;;;;;;34.75;4.68;;;7.00;99.90;;;;;;5072263;28;20491;-56
2024/01/25 00:50:45;;;;;;;43.45;6.00;;;7.00;99.90;;;;;;5071106;28;20033;-54
2024/01/25 00:53:11;;;;;;;25.55;4.38;;;6.90;99.90;;;;;;5070638;28;20052;-55
2024/01/25 00:55:37;;;;;;;26.75;4.00;;;6.90;99.90;;;;;;5072487;28;20415;-55
2024/01/25 00:58:03;;;;;;;43.35;5.70;;;6.90;99.90;;;;;;5070813;28;20380;-54
2024/01/25 01:00:29;;;;;;;31.05;4.72;;;6.90;99.90;;;;;;5070081;28;20563;-55
2024/01/25 01:02:58;;;;;;;32.75;4.85;;;6.90;99.90;;;;;;5072177;28;20042;-56
2024/01/25 01:05:25;;;;;;;36.35;5.32;;;6.90;99.90;;;;;;5071080;28;20442;-55
2024/01/25 01:07:51;;;;;;;37.55;5.05;;;6.90;99.90;;;;;;5070404;28;20131;-56
2024/01/25 01:10:16;;;;;;;35.78;4.85;;;7.00;99.90;;;;;;5072169;28;20116;-56
2024/01/25 01:12:42;;;;;;;31.75;5.35;;;7.00;99.90;;;;;;5071862;28;20104;-56
2024/01/25 01:15:08;;;;;;;38.90;5.25;;;7.00;99.90;;;;;;5070298;28;20422;-56
2024/01/25 01:17:33;;;;;;;33.42;5.28;;;6.90;99.90;;;;;;5070209;28;20051;-56
2024/01/25 01:19:59;;;;;;;29.15;4.88;;;6.90;99.90;;;;;;5071492;28;20056;-56
2024/01/25 01:22:25;;;;;;;29.85;4.80;;;6.80;99.90;;;;;;5070539;28;20159;-55
2024/01/25 01:24:50;;;;;;;33.22;5.43;;;7.00;99.90;;;;;;5071450;28;20399;-57
2024/01/25 01:27:16;;;;;;;30.08;5.25;;;6.90;99.90;;;;;;5068575;28;20045;-53
2024/01/25 01:29:42;;;;;;;29.63;4.82;;;6.80;99.90;;;;;;5070187;28;20029;-55
2024/01/25 01:32:08;;;;;;;32.25;5.07;;;6.70;99.90;;;;;;5070399;28;20036;-56
2024/01/25 01:34:33;;;;;;;37.15;5.55;;;6.70;99.90;;;;;;5071158;28;20040;-56
2024/01/25 01:36:59;;;;;;;33.80;5.10;;;6.70;99.90;;;;;;5071789;28;20043;-56
2024/01/25 01:39:26;;;;;;;43.67;5.35;;;6.80;99.90;;;;;;5071627;28;20068;-55
2024/01/25 01:41:51;;;;;;;25.65;5.13;;;6.70;99.90;;;;;;5071374;28;20097;-55
2024/01/25 01:44:17;;;;;;;31.95;4.93;;;6.70;99.90;;;;;;5070782;28;20040;-55
2024/01/25 01:46:43;;;;;;;35.78;5.25;;;6.60;99.90;;;;;;5070067;28;20072;-55
2024/01/25 01:49:12;;;;;;;46.30;6.18;;;6.70;99.90;;;;;;5071303;28;20590;-55
2024/01/25 01:51:38;;;;;;;39.20;5.68;;;6.90;99.90;;;;;;5071105;28;20044;-54
2024/01/25 01:54:06;;;;;;;40.35;5.22;;;6.70;99.90;;;;;;5070795;28;20040;-55
2024/01/25 01:56:33;;;;;;;37.25;5.07;;;6.70;99.90;;;;;;5071047;28;20040;-56
2024/01/25 01:59:00;;;;;;;37.70;5.65;;;6.60;99.90;;;;;;5069470;28;20043;-55
2024/01/25 02:01:26;;;;;;;43.72;6.68;;;6.70;99.90;;;;;;5071110;28;20051;-55
2024/01/25 02:03:52;;;;;;;32.83;5.43;;;6.60;99.90;;;;;;5071393;28;20040;-54
2024/01/25 02:06:19;;;;;;;32.08;5.38;;;6.70;99.90;;;;;;5070935;28;20037;-55
2024/01/25 02:08:46;;;;;;;33.95;5.60;;;6.60;99.90;;;;;;5070948;28;20507;-55
2024/01/25 02:11:14;;;;;;;41.53;6.30;;;6.50;99.90;;;;;;5071037;28;20037;-56
2024/01/25 02:13:40;;;;;;;40.30;4.85;;;6.60;99.90;;;;;;5068079;28;20423;-57
2024/01/25 02:16:07;;;;;;;33.13;5.25;;;6.50;99.90;;;;;;5070354;28;20043;-53
2024/01/25 02:18:33;;;;;;;34.28;5.00;;;6.50;99.90;;;;;;5070408;28;20037;-57
2024/01/25 02:20:59;;;;;;;34.53;5.28;;;6.80;99.90;;;;;;5070601;28;20053;-53
2024/01/25 02:23:25;;;;;;;36.40;4.80;;;6.50;99.90;;;;;;5070570;28;20040;-53
2024/01/25 02:25:51;;;;;;;30.35;4.85;;;6.40;99.90;;;;;;5069126;28;20060;-55
2024/01/25 02:28:16;;;;;;;42.10;5.93;;;6.50;99.90;;;;;;5070426;28;20051;-56
2024/01/25 02:30:42;;;;;;;37.35;5.03;;;6.40;99.90;;;;;;5070751;28;20112;-56
2024/01/25 02:33:08;;;;;;;29.15;5.50;;;6.30;99.90;;;;;;5069547;28;20033;-55
2024/01/25 02:35:34;;;;;;;32.92;4.68;;;6.30;99.90;;;;;;5070126;28;20036;-53
2024/01/25 02:37:59;;;;;;;38.35;5.78;;;6.30;99.90;;;;;;5070890;28;20036;-55
2024/01/25 02:40:25;;;;;;;41.78;5.30;;;6.50;99.90;;;;;;5070541;28;20085;-56
2024/01/25 02:42:51;;;;;;;36.08;4.95;;;6.40;99.90;;;;;;5070064;28;20043;-56
2024/01/25 02:45:16;;;;;;;39.20;5.05;;;6.30;99.90;;;;;;5068808;28;20032;-56
2024/01/25 02:47:42;;;;;;;37.97;5.47;;;6.30;99.90;;;;;;5070805;28;20036;-57
2024/01/25 02:50:08;;;;;;;44.90;6.10;;;6.20;99.90;;;;;;5070448;28;20498;-55
2024/01/25 02:52:34;;;;;;;34.80;5.00;;;6.40;99.90;;;;;;5070062;28;20449;-56
2024/01/25 02:55:00;;;;;;;35.72;5.18;;;6.40;99.90;;;;;;5070415;28;20123;-56
2024/01/25 02:57:26;;;;;;;39.90;5.35;;;6.20;99.90;;;;;;5067504;28;20044;-55
2024/01/25 02:59:52;;;;;;;31.55;6.35;;;6.30;99.90;;;;;;5070283;28;20419;-56
2024/01/25 03:02:19;;;;;;;46.28;6.32;;;6.20;99.90;;;;;;5070490;28;20046;-57
2024/01/25 03:04:45;;;;;;;41.42;4.80;;;6.20;99.90;;;;;;5070007;28;20045;-55
2024/01/25 03:07:11;;;;;;;35.88;5.53;;;6.30;99.90;;;;;;5070129;28;20169;-55
2024/01/25 03:09:37;;;;;;;37.33;4.82;;;6.30;99.90;;;;;;5070049;28;20068;-54
2024/01/25 03:12:03;;;;;;;41.00;5.57;;;6.30;99.90;;;;;;5070010;28;20399;-53
2024/01/25 03:14:29;;;;;;;48.47;5.78;;;6.10;99.90;;;;;;5070196;28;20041;-56
2024/01/25 03:16:54;;;;;;;29.08;5.68;;;6.20;99.90;;;;;;5070032;28;20052;-54
2024/01/25 03:19:20;;;;;;;35.42;4.75;;;6.10;99.90;;;;;;5070175;28;20047;-55
2024/01/25 03:21:46;;;;;;;30.15;5.38;;;6.20;99.90;;;;;;5068930;28;20056;-54
2024/01/25 03:24:11;;;;;;;40.70;5.95;;;6.20;99.90;;;;;;5069312;28;20090;-55
2024/01/25 03:26:37;;;;;;;43.55;5.82;;;6.00;99.90;;;;;;5069831;28;20048;-55
2024/01/25 03:29:03;;;;;;;39.83;5.43;;;6.00;99.90;;;;;;5069727;28;20068;-52
2024/01/25 03:31:28;;;;;;;32.45;5.35;;;5.90;99.90;;;;;;5070231;28;20068;-55
2024/01/25 03:33:54;;;;;;;29.05;5.40;;;6.00;99.90;;;;;;5069799;28;20492;-56
2024/01/25 03:36:20;;;;;;;33.53;5.32;;;6.00;99.90;;;;;;5069986;28;20033;-54
2024/01/25 03:38:45;;;;;;;35.25;5.97;;;6.00;99.90;;;;;;5070203;28;20032;-56
2024/01/25 03:41:11;;;;;;;38.70;5.32;;;6.00;99.90;;;;;;5072096;28;20040;-56
2024/01/25 03:43:37;;;;;;;38.63;5.38;;;6.10;99.90;;;;;;5071088;28;20032;-54
2024/01/25 03:46:03;;;;;;;39.60;5.70;;;6.00;99.90;;;;;;5071931;28;20051;-57
2024/01/25 03:48:28;;;;;;;37.55;5.88;;;5.90;99.90;;;;;;5072482;28;20046;-55
2024/01/25 03:50:57;;;;;;;42.83;5.43;;;5.70;99.90;;;;;;5073727;28;20040;-56
2024/01/25 03:53:23;;;;;;;37.28;4.78;;;5.80;99.90;;;;;;5072848;28;20037;-54
2024/01/25 03:55:49;;;;;;;46.67;5.00;;;5.80;99.90;;;;;;5073028;28;20093;-56
2024/01/25 03:58:18;;;;;;;38.72;5.35;;;5.70;99.90;;;;;;5073419;28;20037;-55
2024/01/25 04:00:44;;;;;;;34.90;5.18;;;5.80;99.90;;;;;;5073679;28;20223;-56
2024/01/25 04:03:10;;;;;;;32.50;4.95;;;5.90;99.90;;;;;;5073279;28;20115;-56
2024/01/25 04:05:36;;;;;;;28.90;4.78;;;6.00;99.90;;;;;;5073569;28;20040;-56
2024/01/25 04:08:02;;;;;;;43.25;5.38;;;6.00;99.90;;;;;;5073099;28;20494;-56
2024/01/25 04:10:28;;;;;;;38.35;6.35;;;5.80;99.90;;;;;;5071580;28;20036;-55
2024/01/25 04:12:54;;;;;;;44.75;5.95;;;5.50;99.90;;;;;;5073452;28;20490;-57
2024/01/25 04:15:19;;;;;;;37.15;5.63;;;5.80;99.90;;;;;;5072510;28;20044;-56
2024/01/25 04:17:45;;;;;;;46.33;5.55;;;5.60;99.90;;;;;;5072037;28;20505;-54
2024/01/25 04:20:11;;;;;;;35.10;4.40;;;5.70;99.90;;;;;;5071944;28;20115;-56
2024/01/25 04:22:37;;;;;;;39.38;4.55;;;5.60;99.90;;;;;;5072411;28;20066;-56
2024/01/25 04:25:04;;;;;;;35.92;4.88;;;5.80;99.90;;;;;;5072360;28;20051;-56
2024/01/25 04:27:30;;;;;;;41.03;4.60;;;5.40;99.90;;;;;;5070562;28;20110;-54
2024/01/25 04:29:56;;;;;;;35.60;5.55;;;5.70;99.90;;;;;;5072740;28;20060;-55
2024/01/25 04:32:21;;;;;;;38.03;4.82;;;5.70;99.90;;;;;;5072210;28;20140;-55
2024/01/25 04:34:47;;;;;;;29.50;4.38;;;5.50;99.90;;;;;;5072199;28;20131;-56
2024/01/25 04:37:13;;;;;;;36.45;5.60;;;5.60;99.90;;;;;;5072537;28;20064;-56
2024/01/25 04:39:39;;;;;;;40.03;5.55;;;5.60;99.90;;;;;;5071108;28;20135;-54
2024/01/25 04:42:05;;;;;;;38.45;5.43;;;5.20;99.90;;;;;;5073236;28;20500;-56
2024/01/25 04:44:31;;;;;;;34.13;6.05;;;5.20;99.90;;;;;;5072316;28;20121;-55
2024/01/25 04:46:56;;;;;;;34.45;5.90;;;5.30;99.90;;;;;;5072364;28;20125;-56
2024/01/25 04:49:22;;;;;;;28.10;5.00;;;5.50;99.90;;;;;;5071119;28;20119;-53
2024/01/25 04:51:48;;;;;;;48.35;5.15;;;5.10;99.90;;;;;;5071974;28;20045;-56
2024/01/25 04:54:15;;;;;;;40.40;4.70;;;5.40;99.90;;;;;;5070799;28;20047;-53
2024/01/25 04:56:41;;;;;;;30.38;5.10;;;5.60;99.90;;;;;;5072243;28;20049;-57
2024/01/25 04:59:07;;;;;;;42.45;5.18;;;5.50;99.90;;;;;;5071310;28;20044;-56
2024/01/25 05:01:33;;;;;;;44.85;5.25;;;5.40;99.90;;;;;;5072557;28;20044;-54
2024/01/25 05:03:59;;;;;;;40.42;4.75;;;5.30;99.90;;;;;;5071658;28;20420;-56
2024/01/25 05:06:25;;;;;;;32.65;4.43;;;5.30;99.90;;;;;;5072370;28;20094;-56
2024/01/25 05:08:51;;;;;;;31.23;5.65;;;5.30;99.90;;;;;;5068757;28;20071;-55
2024/01/25 05:11:17;;;;;;;28.83;4.72;;;5.30;99.90;;;;;;5072043;28;20060;-55
2024/01/25 05:13:43;;;;;;;26.50;4.43;;;5.30;99.90;;;;;;5069141;28;20044;-56
2024/01/25 05:16:09;;;;;;;40.33;5.70;;;4.80;99.90;;;;;;5072081;28;20037;-54
2024/01/25 05:18:34;;;;;;;24.58;3.88;;;4.60;99.90;;;;;;5071377;28;20507;-56
2024/01/25 05:21:00;;;;;;;26.25;4.80;;;4.80;99.90;;;;;;5087239;28;20273;-54
2024/01/25 05:23:26;;;;;;;37.85;4.78;;;4.30;99.90;;;;;;5071732;28;20085;-54
2024/01/25 05:25:52;;;;;;;43.75;5.75;;;4.50;99.90;;;;;;5071744;28;20029;-54
2024/01/25 05:28:18;;;;;;;20.60;4.25;;;4.50;99.90;;;;;;5071947;28;20078;-57
2024/01/25 05:30:44;;;;;;;29.95;4.75;;;4.10;99.90;;;;;;5071870;28;20476;-56
2024/01/25 05:33:09;;;;;;;42.90;4.85;;;4.00;99.90;;;;;;5069940;28;20415;-55
2024/01/25 05:35:35;;;;;;;30.17;4.85;;;4.00;99.90;;;;;;5071499;28;20061;-55
2024/01/25 05:38:01;;;;;;;25.85;4.45;;;4.40;99.90;;;;;;5071100;28;20534;-56
2024/01/25 05:40:27;;;;;;;31.13;4.22;;;4.10;99.90;;;;;;5071347;28;20051;-56
2024/01/25 05:42:52;;;;;;;35.55;4.57;;;3.70;99.90;;;;;;5071647;28;20040;-57
2024/01/25 05:45:21;;;;;;;34.28;4.93;;;4.10;99.90;;;;;;5071282;28;20487;-56
2024/01/25 05:47:47;;;;;;;41.30;5.22;;;4.10;99.90;;;;;;5071847;28;20442;-56
2024/01/25 05:50:13;;;;;;;36.72;5.38;;;4.00;99.90;;;;;;5069808;28;20041;-54
2024/01/25 05:52:39;;;;;;;31.90;5.15;;;4.00;99.90;;;;;;5070594;28;20462;-56
2024/01/25 05:55:05;;;;;;;36.88;5.63;;;3.80;99.90;;;;;;5071338;28;20036;-54
2024/01/25 05:57:32;;;;;;;32.85;4.38;;;3.80;99.90;;;;;;5068628;28;20117;-56
2024/01/25 05:59:57;;;;;;;33.63;4.75;;;3.90;99.90;;;;;;5070606;28;20037;-56
2024/01/25 06:02:23;;;;;;;32.63;4.82;;;3.40;99.90;;;;;;5070209;28;20032;-53
2024/01/25 06:04:49;;;;;;;34.28;4.72;;;3.40;99.90;;;;;;5070096;28;20040;-56
2024/01/25 06:07:14;;;;;;;26.75;4.85;;;3.60;99.90;;;;;;5070554;28;20039;-54
2024/01/25 06:09:40;;;;;;;35.97;5.10;;;3.80;99.90;;;;;;5070137;28;20047;-56
2024/01/25 06:12:06;;;;;;;40.70;5.15;;;3.50;99.90;;;;;;5070953;28;20068;-54
2024/01/25 06:14:32;;;;;;;36.60;4.95;;;3.40;99.90;;;;;;5070596;28;20028;-55
2024/01/25 06:16:58;;;;;;;51.78;6.18;;;3.60;99.90;;;;;;5070517;28;20044;-54
2024/01/25 06:19:23;;;;;;;42.35;5.65;;;3.70;99.90;;;;;;5070848;28;20044;-54
2024/01/25 06:21:50;;;;;;;37.90;5.32;;;3.40;99.90;;;;;;5068343;28;20052;-56
2024/01/25 06:24:15;;;;;;;43.67;5.22;;;3.40;99.90;;;;;;5070397;28;20055;-55
2024/01/25 06:26:41;;;;;;;36.47;4.82;;;3.90;99.90;;;;;;5069499;28;20124;-55
2024/01/25 06:29:06;;;;;;;31.35;5.13;;;3.60;99.90;;;;;;5070176;28;20036;-55
2024/01/25 06:31:32;;;;;;;30.80;4.50;;;3.40;99.90;;;;;;5070614;28;20549;-55
2024/01/25 06:33:58;;;;;;;35.97;5.78;;;4.00;99.90;;;;;;5069949;28;20062;-56
2024/01/25 06:36:23;;;;;;;40.90;4.72;;;3.80;99.90;;;;;;5070453;28;20048;-54
2024/01/25 06:38:49;;;;;;;38.00;6.00;;;3.20;99.90;;;;;;5070188;28;20105;-51
2024/01/25 06:41:16;;;;;;;37.22;5.18;;;3.50;99.90;;;;;;5070842;28;20044;-56
2024/01/25 06:43:42;;;;;;;29.98;4.30;;;3.40;99.90;;;;;;5067809;28;20384;-56
2024/01/25 06:46:07;;;;;;;50.65;5.22;;;3.30;99.90;;;;;;5069809;28;20044;-55
2024/01/25 06:48:34;;;;;;;34.53;5.03;;;3.70;99.90;;;;;;5070309;28;20480;-56
2024/01/25 06:51:00;;;;;;;37.03;5.57;;;3.60;99.90;;;;;;5069684;28;20053;-56
2024/01/25 06:53:26;;;;;;;41.50;6.60;;;3.70;99.90;;;;;;5070144;28;20087;-56
2024/01/25 06:55:52;;;;;;;41.33;5.38;;;3.60;99.90;;;;;;5068630;28;20044;-56
2024/01/25 06:58:18;;;;;;;43.58;5.25;;;3.70;99.90;;;;;;5070105;28;20048;-55
2024/01/25 07:00:46;;;;;;;42.03;6.70;;;3.10;99.90;;;;;;5068902;28;20056;-53
2024/01/25 07:03:12;;;;;;;46.38;6.22;;;3.70;99.90;;;;;;5070395;28;20036;-53
2024/01/25 07:05:38;;;;;;;37.22;5.75;;;3.70;99.90;;;;;;5069904;28;20048;-54
2024/01/25 07:08:04;;;;;;;38.92;5.53;;;3.00;99.90;;;;;;5069704;28;20035;-55
2024/01/25 07:10:30;;;;;;;39.05;5.45;;;3.00;99.90;;;;;;5068474;28;20047;-57
2024/01/25 07:12:56;;;;;;;39.00;5.75;;;3.20;99.90;;;;;;5069896;28;20033;-54
2024/01/25 07:15:22;;;;;;;35.67;5.30;;;3.10;99.90;;;;;;5071714;28;20044;-55
2024/01/25 07:17:47;;;;;;;31.58;5.07;;;3.00;99.90;;;;;;5073662;28;20032;-55
2024/01/25 07:20:13;;;;;;;40.20;6.05;;;3.20;99.90;;;;;;5073189;28;20135;-55
2024/01/25 07:22:39;;;;;;;36.97;5.85;;;2.90;99.90;;;;;;5073940;28;20095;-56
2024/01/25 07:25:05;;;;;;;42.80;5.35;;;3.20;99.90;;;;;;5074283;28;20049;-55
2024/01/25 07:27:31;;;;;;;41.33;5.43;;;3.70;99.90;;;;;;5069478;28;20048;-55
2024/01/25 07:29:57;;;;;;;43.35;6.03;;;3.50;99.90;;;;;;5073408;28;20039;-55
2024/01/25 07:32:24;;;;;;;54.05;5.88;;;3.60;99.90;;;;;;5073135;28;20495;-56
2024/01/25 07:34:50;;;;;;;36.85;5.57;;;3.70;99.90;;;;;;5073246;28;20086;-56
2024/01/25 07:37:18;;;;;;;38.22;6.82;;;3.70;99.90;;;;;;5073044;28;20044;-55
2024/01/25 07:39:44;;;;;;;39.85;5.57;;;3.70;99.90;;;;;;5074299;28;20056;-55
2024/01/25 07:42:09;;;;;;;34.30;5.75;;;2.90;99.90;;;;;;5074283;28;20381;-54
2024/01/25 07:44:35;;;;;;;35.60;5.38;;;3.60;99.90;;;;;;5073867;28;20062;-54
2024/01/25 07:47:02;;;;;;;35.80;5.00;;;2.90;99.90;;;;;;5065696;28;20036;-56
2024/01/25 07:49:28;;;;;;;38.92;5.20;;;3.20;99.90;;;;;;5067050;28;20409;-56
2024/01/25 07:51:56;;;;;;;46.60;6.75;;;3.40;99.90;;;;;;5067393;28;20534;-52
2024/01/25 07:54:22;;;;;;;30.48;5.28;;;3.40;99.90;;;;;;5065285;28;20032;-55
2024/01/25 07:56:48;;;;;;;32.00;6.13;;;3.40;99.90;;;;;;5067983;28;20408;-55
2024/01/25 07:59:13;;;;;;;33.00;5.70;;;3.70;99.90;;;;;;5066737;28;20044;-55
2024/01/25 08:01:39;;;;;;;45.42;5.95;;;3.70;99.90;;;;;;5066935;28;20475;-56
2024/01/25 08:04:05;;;;;;;38.55;5.75;;;3.40;99.90;;;;;;5065799;28;20029;-54
2024/01/25 08:06:30;;;;;;;34.88;4.82;;;3.70;99.90;;;;;;5066155;28;20407;-54
2024/01/25 08:08:56;;;;;;;34.30;5.97;;;3.00;99.90;;;;;;5065191;28;20036;-54
2024/01/25 08:11:22;;;;;;;33.45;4.85;;;3.50;99.90;;;;;;5064055;28;20028;-55
2024/01/25 08:13:49;;;;;;;39.50;5.95;;;3.50;99.90;;;;;;5065667;28;20109;-55
2024/01/25 08:16:19;;;;;;;31.67;6.07;;;3.80;99.90;;;;;;5065403;28;20123;-55
2024/01/25 08:18:45;;;;;;;35.33;5.78;;;3.10;99.90;;;;;;5068068;28;20029;-54
2024/01/25 08:21:11;;;;;;;35.05;4.65;;;3.80;99.90;;;;;;5067177;28;20052;-55
2024/01/25 08:23:38;;;;;;;37.67;5.45;;;3.00;99.90;;;;;;5065616;28;20099;-56
2024/01/25 08:26:04;;;;;;;38.30;5.15;;;3.20;99.90;;;;;;5065829;28;20040;-56
2024/01/25 08:28:29;;;;;;;33.97;5.40;;;3.80;99.90;;;;;;5066257;28;20059;-55
2024/01/25 08:30:55;;;;;;;36.70;5.65;;;3.10;99.90;;;;;;5065263;28;20034;-55
2024/01/25 08:33:21;;;;;;;40.83;5.57;;;3.50;99.90;;;;;;5063689;28;20425;-56
2024/01/25 08:35:46;;;;;;;67.20;9.07;;;3.80;99.90;;;;;;5064133;28;20037;-54
2024/01/25 08:38:12;;;;;;;29.90;5.03;;;3.60;99.90;;;;;;5062934;28;20036;-56
2024/01/25 08:40:38;;;;;;;35.95;5.05;;;3.20;99.90;;;;;;5065701;28;20044;-56
2024/01/25 08:43:04;;;;;;;39.25;5.40;;;3.70;99.90;;;;;;5067202;28;20040;-55
2024/01/25 08:45:30;;;;;;;38.05;6.25;;;3.60;99.90;;;;;;5067644;28;20119;-56
2024/01/25 08:47:56;;;;;;;43.85;5.72;;;3.20;99.90;;;;;;5066006;28;20127;-53
2024/01/25 08:50:22;;;;;;;40.42;6.03;;;3.80;99.90;;;;;;5073931;28;20048;-54
2024/01/25 08:52:48;;;;;;;41.30;6.60;;;4.60;99.90;;;;;;5067510;28;20040;-55
2024/01/25 08:55:14;;;;;;;47.10;6.75;;;3.90;99.90;;;;;;5065244;28;20033;-56
2024/01/25 08:57:40;;;;;;;41.47;6.65;;;4.20;99.90;;;;;;5065387;28;20043;-56
2024/01/25 09:00:12;;;;;;;43.90;6.35;;;4.30;99.90;;;;;;5065464;28;20048;-56
2024/01/25 09:02:38;;;;;;;38.97;5.63;;;4.00;99.90;;;;;;5065383;28;20053;-55
2024/01/25 09:05:08;;;;;;;47.80;7.15;;;3.80;99.90;;;;;;5065934;28;20134;-54
2024/01/25 09:07:34;;;;;;;48.90;6.00;;;4.00;99.90;;;;;;5065050;28;20089;-56
2024/01/25 09:10:00;;;;;;;37.20;6.43;;;3.70;99.90;;;;;;5067133;28;20115;-56
2024/01/25 09:12:25;;;;;;;36.72;6.70;;;4.10;99.90;;;;;;5066997;28;20037;-56
2024/01/25 09:14:51;;;;;;;40.85;7.35;;;4.40;99.90;;;;;;5063478;28;20567;-55
2024/01/25 09:17:21;;;;;;;46.63;7.70;;;4.80;99.90;;;;;;5065636;28;20059;-55
2024/01/25 09:19:51;;;;;;;50.00;7.40;;;4.70;99.90;;;;;;5065262;28;20864;-56
2024/01/25 09:22:19;;;;;;;38.63;6.35;;;3.90;99.90;;;;;;5065588;28;20071;-54
2024/01/25 09:24:47;;;;;;;54.15;8.77;;;4.10;99.90;;;;;;5066892;28;20033;-54
2024/01/25 09:27:13;;;;;;;41.28;7.07;;;4.70;99.90;;;;;;5064395;28;20033;-54
2024/01/25 09:29:40;;;;;;;44.40;7.45;;;4.50;99.90;;;;;;5066240;28;20072;-56
2024/01/25 09:32:08;;;;;;;47.08;8.05;;;4.70;99.90;;;;;;5066584;28;20032;-56
2024/01/25 09:34:34;;;;;;;42.83;7.28;;;4.50;99.90;;;;;;5065004;28;20027;-55
2024/01/25 09:37:00;;;;;;;43.70;7.65;;;4.40;99.90;;;;;;5063657;28;20045;-54
2024/01/25 09:39:26;;;;;;;46.40;7.20;;;5.10;99.90;;;;;;5064618;28;20039;-54
2024/01/25 09:41:51;;;;;;;39.40;7.03;;;4.40;99.90;;;;;;5063175;28;20159;-56
2024/01/25 09:44:17;;;;;;;51.60;7.78;;;4.60;99.90;;;;;;5062747;28;20032;-56
2024/01/25 09:46:44;;;;;;;44.67;7.57;;;4.60;99.90;;;;;;5062298;28;20052;-56
2024/01/25 09:49:10;;;;;;;47.10;7.25;;;4.60;99.90;;;;;;5062596;28;20036;-55
2024/01/25 09:51:42;;;;;;;48.67;7.93;;;5.30;99.90;;;;;;5069244;28;20037;-55
2024/01/25 09:54:08;;;;;;;43.22;8.30;;;4.50;99.90;;;;;;5064814;28;20115;-54
2024/01/25 09:56:35;;;;;;;40.50;7.00;;;5.30;99.90;;;;;;5068862;28;20159;-55
2024/01/25 09:59:01;;;;;;;36.30;6.95;;;5.40;99.90;;;;;;5067466;28;20096;-55
2024/01/25 10:01:27;;;;;;;43.10;7.80;;;5.50;99.90;;;;;;5069341;28;20068;-56
2024/01/25 10:03:55;;;;;;;56.00;7.93;;;5.10;99.90;;;;;;5071141;28;20079;-55
2024/01/25 10:06:21;;;;;;;54.95;8.35;;;5.80;99.90;;;;;;5071186;28;20131;-54
2024/01/25 10:08:47;;;;;;;55.15;9.20;;;5.50;99.90;;;;;;5071174;28;20470;-54
2024/01/25 10:11:14;;;;;;;49.58;8.18;;;5.60;99.90;;;;;;5071190;28;20032;-53
2024/01/25 10:13:47;;;;;;;45.83;7.88;;;5.60;99.90;;;;;;5071068;28;20048;-56
2024/01/25 10:16:14;;;;;;;46.80;8.75;;;5.80;99.90;;;;;;5070664;28;20037;-54
2024/01/25 10:18:45;;;;;;;44.75;8.18;;;5.20;99.90;;;;;;5070815;28;20040;-56
2024/01/25 10:21:12;;;;;;;47.88;8.65;;;5.40;99.90;;;;;;5069956;28;20064;-55
2024/01/25 10:23:38;;;;;;;43.65;7.85;;;6.00;99.90;;;;;;5070507;28;20416;-56
2024/01/25 10:26:04;;;;;;;41.97;7.53;;;6.10;99.90;;;;;;5071295;28;20033;-55
2024/01/25 10:28:31;;;;;;;45.38;8.13;;;6.10;99.90;;;;;;5071325;28;20040;-54
2024/01/25 10:31:01;;;;;;;47.30;7.80;;;6.00;99.90;;;;;;5071059;28;20503;-54
2024/01/25 10:33:28;;;;;;;47.25;9.25;;;6.60;99.90;;;;;;5070921;28;20071;-54
2024/01/25 10:36:03;;;;;;;47.15;9.32;;;6.10;99.90;;;;;;5070558;28;20539;-54
2024/01/25 10:38:35;;;;;;;48.42;9.80;;;6.20;99.90;;;;;;5070568;28;20279;-56
2024/01/25 10:41:02;;;;;;;42.83;9.02;;;6.90;99.90;;;;;;5067617;28;20033;-54
2024/01/25 10:43:30;;;;;;;51.38;9.05;;;6.70;99.90;;;;;;5059734;28;20166;-54
2024/01/25 10:45:58;;;;;;;39.72;8.55;;;6.70;99.90;;;;;;5063639;28;20111;-54
2024/01/25 10:48:27;;;;;;;45.30;8.20;;;6.50;99.90;;;;;;5063433;28;20543;-55
2024/01/25 10:50:59;;;;;;;42.80;8.80;;;6.80;99.90;;;;;;5060789;28;20040;-56
2024/01/25 10:53:26;;;;;;;42.10;8.57;;;6.90;99.90;;;;;;5062438;28;20020;-55
2024/01/25 10:55:52;;;;;;;46.22;9.38;;;6.90;99.90;;;;;;5061488;28;20025;-55
2024/01/25 10:58:18;;;;;;;41.25;8.70;;;6.50;99.90;;;;;;5063696;28;20036;-55
2024/01/25 11:00:58;;;;;;;52.70;8.63;;;6.60;99.90;;;;;;5062893;28;20472;-56
2024/01/25 11:03:33;;;;;;;49.55;8.73;;;6.80;99.90;;;;;;5061341;28;20126;-56
2024/01/25 11:06:09;;;;;;;52.65;10.20;;;6.70;99.90;;;;;;5058817;28;20087;-56
2024/01/25 11:08:38;;;;;;;48.55;9.38;;;7.20;99.90;;;;;;5062755;28;20033;-54
2024/01/25 11:11:10;;;;;;;44.47;9.70;;;6.80;99.90;;;;;;5063719;28;20028;-53
2024/01/25 11:13:39;;;;;;;47.22;8.88;;;7.30;99.90;;;;;;5059239;28;20021;-56
2024/01/25 11:16:27;;;;;;;44.10;8.38;;;7.40;99.90;;;;;;5058158;28;20084;-54
2024/01/25 11:19:06;;;;;;;48.95;9.73;;;7.60;99.90;;;;;;5059655;28;20519;-55
2024/01/25 11:21:49;;;;;;;40.42;8.43;;;7.80;99.90;;;;;;5070616;28;20056;-53
2024/01/25 11:24:28;;;;;;;51.00;10.10;;;7.90;99.90;;;;;;5059490;28;20044;-55
2024/01/25 11:26:55;;;;;;;43.67;9.32;;;8.00;99.90;;;;;;5059561;28;20045;-55
2024/01/25 11:29:22;;;;;;;37.97;9.02;;;8.10;99.90;;;;;;5058374;28;20422;-55
2024/01/25 11:31:50;;;;;;;36.40;8.45;;;8.00;99.90;;;;;;5058617;28;20101;-55
2024/01/25 11:34:17;;;;;;;44.08;9.07;;;8.00;99.90;;;;;;5058243;28;20094;-53
2024/01/25 11:36:44;;;;;;;38.13;8.70;;;8.00;99.90;;;;;;5058555;28;20083;-55
2024/01/25 11:39:11;;;;;;;38.85;8.10;;;8.40;99.90;;;;;;5059772;28;20036;-55
2024/01/25 11:41:37;;;;;;;39.50;8.50;;;8.60;99.90;;;;;;5059813;28;20033;-55
2024/01/25 11:44:03;;;;;;;46.78;9.10;;;8.80;99.90;;;;;;5059316;28;20020;-55
2024/01/25 11:46:30;;;;;;;44.95;9.15;;;9.10;99.90;;;;;;5057839;28;20190;-55
2024/01/25 11:48:56;;;;;;;41.17;8.30;;;9.10;99.90;;;;;;5060247;28;20055;-56
2024/01/25 11:51:22;;;;;;;39.47;8.15;;;9.00;99.90;;;;;;5059300;28;20068;-55
2024/01/25 11:53:47;;;;;;;34.50;8.57;;;8.80;99.90;;;;;;5058231;28;20391;-55
2024/01/25 11:56:19;;;;;;;40.55;8.77;;;8.60;99.90;;;;;;5058030;28;20040;-55
2024/01/25 11:58:45;;;;;;;36.25;8.50;;;8.60;99.90;;;;;;5058528;28;20032;-55
2024/01/25 12:01:12;;;;;;;34.80;8.30;;;8.40;99.90;;;;;;5061345;28;20224;-55
2024/01/25 12:03:38;;;;;;;39.95;8.57;;;8.30;99.90;;;;;;5058812;28;20491;-56
2024/01/25 12:06:05;;;;;;;41.95;9.15;;;8.20;99.90;;;;;;5059959;28;20048;-56
2024/01/25 12:08:33;;;;;;;52.10;9.13;;;8.10;99.90;;;;;;5061088;28;20420;-54
2024/01/25 12:11:07;;;;;;;46.83;9.85;;;8.20;99.90;;;;;;5060358;28;20069;-55
2024/01/25 12:13:34;;;;;;;;;;;8.00;99.90;;;;;;5061002;28;20039;-53
2024/01/25 12:16:00;;;;;;;46.40;8.70;;;7.90;99.90;;;;;;5059860;28;19916;-55
2024/01/25 12:18:27;;;;;;;41.30;8.07;;;8.00;99.90;;;;;;5061112;28;20040;-55
2024/01/25 12:20:52;;;;;;;46.22;9.05;;;8.10;99.90;;;;;;5059695;28;20115;-56
2024/01/25 12:23:19;;;;;;;53.03;9.90;;;8.50;99.90;;;;;;5060021;28;20036;-56
2024/01/25 12:25:45;;;;;;;49.97;8.73;;;8.70;99.90;;;;;;5059723;28;20032;-55
2024/01/25 12:28:11;;;;;;;34.15;8.73;;;8.80;99.90;;;;;;5059648;28;20051;-56
2024/01/25 12:30:37;;;;;;;39.33;8.52;;;9.10;99.90;;;;;;5068947;28;20032;-54
2024/01/25 12:33:03;;;;;;;36.15;8.40;;;9.40;99.90;;;;;;5062894;28;20127;-53
2024/01/25 12:35:29;;;;;;;36.90;8.45;;;9.60;99.90;;;;;;5067990;28;20040;-55
2024/01/25 12:37:55;;;;;;;36.20;7.63;;;9.70;99.90;;;;;;5071417;28;20039;-57
2024/01/25 12:40:20;;;;;;;32.17;7.15;;;10.00;99.90;;;;;;5071935;28;20044;-54
2024/01/25 12:42:46;;;;;;;31.67;7.72;;;10.00;99.90;;;;;;5071888;28;20055;-55
2024/01/25 12:45:12;;;;;;;38.25;8.05;;;9.80;99.90;;;;;;5071081;28;20039;-55